Scarborough, ME (04074)

7:42 AM EST on December 10, 2016 (GMT -0500)
Eastern Village - Scarborough | | Change Station

Elev 82 ft 43.58 °N, 70.34 °W | Updated 17 seconds ago

Clear
Clear
15.4 °F
Feels Like 15 °F
N
0.0
Wind Variable Wind from WSW
Gusts 0.0 mph

Today
High -- | Low -- °F
--% Chance of Precip.
Yesterday
High -- | Low -- °F
Precip. -- in
Pressure 30.22 in
Visibility 10.0 miles
Clouds Clear
Windchill 15 °F
Dew Point 5 °F
Humidity 63%
Rainfall 0.00 in
Snow Depth Not available.
7:04 AM 4:04 PM
Waxing Gibbous, 83% visible
METAR KPWM 101151Z 00000KT 10SM CLR M10/M16 A3022 RMK AO2 SLP233 T11001156 11061 21106 53013
Pressure 30.22 in
Visibility 10.0 miles
Clouds Clear
Windchill 15 °F
Dew Point 5 °F
Humidity 63%
Rainfall 0.00 in
Snow Depth Not available.
7:04 AM 4:04 PM
Waxing Gibbous, 83% visible
METAR KPWM 101151Z 00000KT 10SM CLR M10/M16 A3022 RMK AO2 SLP233 T11001156 11061 21106 53013

10-Day Weather Forecast

Almanac

Astronomy

Dec. 10, 2016 Rise Set
Actual Time
Civil Twilight
Nautical Twilight
Astronomical Twilight
Moon
Length of Visible Light
Length of Day
Tomorrow will be .
, % of the Moon is Illuminated

Today's Extremes

State Highs State Lows

Community

WunderPhotos

Upload Photos

1,956,540 photos uploaded!

WunderBlog® & News

Nearby

Air Quality

  Air Quality AQ Index Pollutant
Not available.

Snow Depth

Station Depth Elevation

Earthquake Activity

City Distance Mag. Time & Date
Minimum magnitude displayed is 2.5.

Coastal Water Temperatures

Place Temperature

Stations

Nearby Weather Stations

Station Location Temp. Windchill Dew Point Humidity Wind Precip. Elev Updated Type
                   

Watches & Warnings

There are currently no watches in effect.